createdAt,value
2019-05-17T00:01:37.545Z,13.67
2019-05-17T00:05:40.928Z,12.40
2019-05-17T00:09:43.932Z,14.67
2019-05-17T00:13:46.938Z,14.63
2019-05-17T00:17:49.957Z,13.07
2019-05-17T00:21:52.962Z,13.10
2019-05-17T00:25:56.474Z,11.93
2019-05-17T00:29:59.674Z,15.23
2019-05-17T00:34:02.842Z,12.93
2019-05-17T00:38:06.622Z,13.80
2019-05-17T00:42:09.976Z,15.80
2019-05-17T00:46:14.577Z,15.20
2019-05-17T00:50:17.610Z,15.37
2019-05-17T00:54:20.624Z,15.80
2019-05-17T00:58:23.628Z,14.90
2019-05-17T01:02:27.017Z,14.57
2019-05-17T01:06:30.339Z,14.87
2019-05-17T01:10:33.339Z,16.50
2019-05-17T01:14:37.243Z,15.47
2019-05-17T01:18:40.621Z,18.83
2019-05-17T01:22:43.631Z,16.10
2019-05-17T01:26:46.966Z,18.53
2019-05-17T01:30:50.127Z,18.67
2019-05-17T01:34:53.141Z,17.80
2019-05-17T01:38:57.618Z,18.77
2019-05-17T01:43:00.846Z,19.90
2019-05-17T01:47:07.418Z,18.57
2019-05-17T01:51:10.466Z,19.43
2019-05-17T01:55:13.576Z,20.30
2019-05-17T01:59:17.412Z,20.43
2019-05-17T02:03:20.552Z,18.87
2019-05-17T02:07:23.564Z,18.60
2019-05-17T02:11:27.030Z,18.97
2019-05-17T02:15:30.216Z,20.73
2019-05-17T02:19:33.204Z,20.80
2019-05-17T02:23:37.177Z,18.83
2019-05-17T02:27:44.374Z,18.03
2019-05-17T02:31:45.858Z,18.57
2019-05-17T02:35:48.847Z,19.80
2019-05-17T02:40:01.890Z,19.40
2019-05-17T02:43:56.888Z,19.97
2019-05-17T02:48:03.800Z,20.40
2019-05-17T02:52:06.338Z,19.37
2019-05-17T02:56:13.054Z,21.63
2019-05-17T03:00:14.893Z,18.40
2019-05-17T03:04:17.897Z,21.07
2019-05-17T03:08:23.526Z,21.50
2019-05-17T03:12:25.827Z,19.53
2019-05-17T03:16:28.813Z,19.37
2019-05-17T03:20:32.856Z,19.00
2019-05-17T03:24:36.132Z,18.63
2019-05-17T03:28:42.438Z,21.13
2019-05-17T03:32:48.292Z,20.20
2019-05-17T03:36:55.837Z,18.57
2019-05-17T03:41:13.428Z,20.40
2019-05-17T03:45:02.932Z,19.10
2019-05-17T03:49:05.599Z,20.13
2019-05-17T03:53:08.807Z,20.40
2019-05-17T03:57:13.451Z,15.70
2019-05-17T04:01:16.654Z,15.10
2019-05-17T04:05:22.428Z,16.93
2019-05-17T04:09:25.471Z,15.87
2019-05-17T04:13:28.503Z,15.33
2019-05-17T04:17:32.856Z,14.80
2019-05-17T04:21:35.950Z,14.70
2019-05-17T04:25:39.124Z,13.23
2019-05-17T04:29:42.604Z,13.93
2019-05-17T04:33:45.749Z,14.97
2019-05-17T04:37:48.745Z,14.00
2019-05-17T04:41:54.751Z,13.37
2019-05-17T04:45:56.740Z,14.07
2019-05-17T04:50:03.583Z,13.17
2019-05-17T04:54:04.817Z,14.63
2019-05-17T04:58:07.846Z,12.33
2019-05-17T05:02:13.136Z,12.50
2019-05-17T05:06:15.761Z,12.70
2019-05-17T05:10:18.869Z,12.03
2019-05-17T05:14:23.365Z,12.17
2019-05-17T05:18:26.590Z,10.47
2019-05-17T05:22:29.605Z,10.40
2019-05-17T05:26:32.614Z,11.73
2019-05-17T05:30:35.648Z,11.27
2019-05-17T05:34:38.665Z,11.67
2019-05-17T05:38:42.288Z,12.90
2019-05-17T05:42:45.396Z,11.07
2019-05-17T05:46:48.417Z,12.13
2019-05-17T05:50:52.853Z,13.73
2019-05-17T05:54:55.859Z,13.23
2019-05-17T05:58:58.983Z,12.17
2019-05-17T06:03:04.216Z,14.90
2019-05-17T06:07:07.120Z,12.73
2019-05-17T06:11:12.243Z,15.43
2019-05-17T06:15:15.941Z,16.07
2019-05-17T06:19:18.957Z,15.40
2019-05-17T06:23:23.443Z,16.80
2019-05-17T06:27:26.697Z,15.70
2019-05-17T06:31:29.696Z,20.43
2019-05-17T06:35:32.724Z,19.20
2019-05-17T06:39:35.728Z,18.90
2019-05-17T06:43:38.735Z,19.87
2019-05-17T06:47:42.735Z,16.77
2019-05-17T06:51:47.633Z,20.57
2019-05-17T06:55:50.647Z,23.57
2019-05-17T06:59:53.665Z,23.60
2019-05-17T07:03:56.667Z,23.10
2019-05-17T07:08:00.300Z,25.90
2019-05-17T07:12:03.603Z,26.93
2019-05-17T07:16:06.685Z,25.70
2019-05-17T07:20:10.618Z,23.60
2019-05-17T07:24:13.894Z,27.17
2019-05-17T07:28:16.909Z,24.80
2019-05-17T07:32:19.904Z,26.37
2019-05-17T07:36:23.004Z,24.50
2019-05-17T07:40:26.021Z,27.23
2019-05-17T07:44:29.530Z,25.53
2019-05-17T07:48:32.734Z,29.53
2019-05-17T07:52:39.559Z,26.83
2019-05-17T07:56:41.898Z,26.40
2019-05-17T08:00:45.023Z,29.03
2019-05-17T08:04:50.088Z,26.17
2019-05-17T08:08:53.029Z,27.63
2019-05-17T08:12:56.041Z,26.53
2019-05-17T08:16:59.867Z,28.87
2019-05-17T08:21:03.158Z,27.93
2019-05-17T08:25:06.361Z,26.27
2019-05-17T08:29:09.972Z,23.07
2019-05-17T08:33:13.168Z,25.83
2019-05-17T08:37:16.192Z,26.90
2019-05-17T08:41:20.776Z,27.07
2019-05-17T08:45:24.110Z,24.77
2019-05-17T08:49:29.461Z,25.77
2019-05-17T08:53:32.720Z,25.53
2019-05-17T08:57:35.762Z,23.07
2019-05-17T09:01:41.643Z,23.70
2019-05-17T09:05:43.707Z,18.90
2019-05-17T09:09:46.826Z,18.93
2019-05-17T09:13:57.935Z,21.80
2019-05-17T09:17:54.756Z,22.00
2019-05-17T09:21:59.834Z,18.17
2019-05-17T09:26:02.703Z,21.00
2019-05-17T09:30:09.340Z,19.03
2019-05-17T09:34:12.157Z,18.07
2019-05-17T09:38:15.163Z,19.17
2019-05-17T09:42:20.778Z,18.90
2019-05-17T09:46:23.169Z,19.57
2019-05-17T09:50:26.173Z,19.33
2019-05-17T09:54:41.584Z,20.63
2019-05-17T09:58:35.150Z,16.23
2019-05-17T10:02:40.239Z,18.40
2019-05-17T10:06:43.473Z,15.57
2019-05-17T10:10:46.620Z,15.73
2019-05-17T10:14:49.876Z,14.83
2019-05-17T10:18:53.015Z,15.20
2019-05-17T10:22:56.121Z,15.43
2019-05-17T10:26:59.612Z,15.70
2019-05-17T10:31:02.836Z,16.23
2019-05-17T10:35:06.337Z,15.10
2019-05-17T10:39:09.916Z,13.83
2019-05-17T10:43:13.036Z,11.93
2019-05-17T10:47:16.537Z,11.80
2019-05-17T10:51:20.313Z,9.77
2019-05-17T10:55:25.388Z,12.03
2019-05-17T10:59:28.389Z,10.73
2019-05-17T11:03:31.403Z,11.80
2019-05-17T11:07:34.504Z,12.40
2019-05-17T11:11:37.521Z,10.80
2019-05-17T11:15:40.520Z,10.90
2019-05-17T11:19:43.528Z,10.10
2019-05-17T11:23:46.549Z,9.97
2019-05-17T11:27:49.576Z,7.73
2019-05-17T11:31:52.579Z,8.03
2019-05-17T11:35:55.585Z,7.80
2019-05-17T11:39:58.723Z,8.00
2019-05-17T11:44:01.950Z,10.17
2019-05-17T11:48:04.952Z,10.63
2019-05-17T11:52:07.963Z,9.60
2019-05-17T11:56:12.804Z,10.17
2019-05-17T12:00:17.023Z,9.83
2019-05-17T12:04:20.045Z,9.60
2019-05-17T12:08:23.081Z,6.60
2019-05-17T12:12:26.197Z,9.87
2019-05-17T12:16:29.207Z,9.30
2019-05-17T12:20:32.217Z,8.53
2019-05-17T12:24:35.250Z,7.83
2019-05-17T12:28:38.260Z,8.50
2019-05-17T12:32:41.281Z,7.93
2019-05-17T12:36:44.292Z,11.23
2019-05-17T12:40:47.324Z,10.03
2019-05-17T12:44:50.340Z,8.17
2019-05-17T12:48:53.356Z,8.80
2019-05-17T12:52:56.364Z,8.10
2019-05-17T12:57:04.301Z,9.17
2019-05-17T13:01:06.378Z,7.80
2019-05-17T13:05:09.882Z,8.13
2019-05-17T13:09:12.910Z,9.87
2019-05-17T13:13:15.960Z,10.50
2019-05-17T13:17:18.986Z,10.10
2019-05-17T13:21:22.019Z,10.80
2019-05-17T13:25:25.008Z,10.87
2019-05-17T13:29:28.078Z,9.17
2019-05-17T13:33:31.086Z,8.33
2019-05-17T13:37:34.159Z,10.00
2019-05-17T13:41:37.155Z,9.00
2019-05-17T13:45:43.544Z,9.13
2019-05-17T13:49:45.212Z,9.37
2019-05-17T13:53:48.235Z,11.60
2019-05-17T13:57:53.404Z,9.80
2019-05-17T14:01:56.544Z,11.37
2019-05-17T14:05:59.551Z,9.13
2019-05-17T14:10:04.856Z,11.03
2019-05-17T14:14:07.870Z,11.00
2019-05-17T14:18:10.877Z,10.07
2019-05-17T14:22:13.989Z,11.73
2019-05-17T14:26:17.140Z,10.57
2019-05-17T14:30:20.257Z,10.33
2019-05-17T14:34:23.318Z,9.90
2019-05-17T14:38:26.313Z,12.87
2019-05-17T14:42:29.317Z,8.90
2019-05-17T14:46:32.336Z,10.40
2019-05-17T14:50:35.338Z,11.50
2019-05-17T14:54:38.339Z,10.70
2019-05-17T14:58:42.961Z,12.40
2019-05-17T15:02:45.980Z,10.07
2019-05-17T15:06:49.005Z,10.40
2019-05-17T15:10:52.022Z,8.90
2019-05-17T15:14:55.133Z,14.37
2019-05-17T15:18:58.213Z,8.73
2019-05-17T15:23:01.221Z,8.17
2019-05-17T15:27:06.198Z,8.90
2019-05-17T15:31:09.152Z,7.13
2019-05-17T15:35:12.364Z,9.07
2019-05-17T15:39:15.480Z,8.37
2019-05-17T15:43:18.540Z,8.57
2019-05-17T15:47:21.645Z,8.90
2019-05-17T15:51:24.651Z,10.43
2019-05-17T15:55:27.745Z,7.60
2019-05-17T15:59:31.436Z,9.53
2019-05-17T16:03:34.452Z,7.10
2019-05-17T16:07:37.492Z,7.10
2019-05-17T16:11:40.503Z,7.60
2019-05-17T16:15:43.514Z,7.50
2019-05-17T16:19:46.542Z,8.80
2019-05-17T16:23:49.556Z,7.67
2019-05-17T16:27:52.669Z,8.13
2019-05-17T16:31:55.678Z,6.60
2019-05-17T16:35:58.744Z,6.67
2019-05-17T16:40:04.260Z,7.13
2019-05-17T16:44:07.291Z,5.70
2019-05-17T16:48:10.434Z,6.50
2019-05-17T16:52:13.416Z,7.03
2019-05-17T16:56:16.608Z,6.33
2019-05-17T17:00:32.573Z,7.03
2019-05-17T17:04:35.576Z,6.67
2019-05-17T17:08:40.011Z,5.93
2019-05-17T17:12:43.584Z,7.07
2019-05-17T17:16:46.951Z,7.57
2019-05-17T17:20:49.963Z,7.20
2019-05-17T17:24:53.141Z,7.13
2019-05-17T17:28:56.281Z,5.93
2019-05-17T17:32:59.358Z,7.17
2019-05-17T17:37:02.484Z,8.07
2019-05-17T17:41:05.481Z,5.63
2019-05-17T17:45:15.104Z,6.23
2019-05-17T17:49:18.215Z,6.70
2019-05-17T17:53:21.257Z,6.60
2019-05-17T17:57:24.304Z,16.10
2019-05-17T18:01:30.202Z,5.70
2019-05-17T18:05:33.272Z,5.40
2019-05-17T18:09:36.288Z,6.20
2019-05-17T18:13:39.368Z,4.60
2019-05-17T18:17:42.384Z,5.40
2019-05-17T18:21:45.395Z,5.20
2019-05-17T18:25:48.471Z,5.60
2019-05-17T18:29:51.487Z,4.93
2019-05-17T18:33:54.480Z,5.63
2019-05-17T18:37:58.128Z,5.43
2019-05-17T18:42:02.132Z,5.80
2019-05-17T18:46:05.168Z,5.40
2019-05-17T18:50:09.188Z,5.63
2019-05-17T18:54:13.299Z,8.03
2019-05-17T18:58:16.383Z,5.63
2019-05-17T19:02:21.444Z,5.37
2019-05-17T19:06:24.485Z,7.70
2019-05-17T19:10:27.504Z,6.23
2019-05-17T19:14:42.074Z,6.63
2019-05-17T19:18:35.535Z,6.10
2019-05-17T19:22:38.555Z,4.70
2019-05-17T19:26:41.583Z,5.57
2019-05-17T19:30:44.636Z,5.63
2019-05-17T19:34:47.767Z,6.30
2019-05-17T19:38:50.856Z,5.50
2019-05-17T19:42:53.986Z,5.90
2019-05-17T19:46:56.993Z,6.97
2019-05-17T19:51:00.127Z,6.20
2019-05-17T19:55:04.144Z,6.20
2019-05-17T19:59:07.160Z,5.80
2019-05-17T20:03:11.482Z,7.47
2019-05-17T20:07:14.540Z,6.80
2019-05-17T20:11:17.545Z,8.07
2019-05-17T20:15:33.487Z,6.20
2019-05-17T20:19:25.457Z,7.33
2019-05-17T20:23:28.520Z,6.20
2019-05-17T20:27:31.622Z,5.77
2019-05-17T20:31:34.717Z,5.93
2019-05-17T20:35:37.884Z,4.80
2019-05-17T20:39:40.988Z,4.40
2019-05-17T20:43:43.997Z,4.60
2019-05-17T20:47:47.151Z,5.20
2019-05-17T20:51:50.159Z,5.27
2019-05-17T20:55:53.180Z,3.13
2019-05-17T20:59:56.192Z,4.27
2019-05-17T21:04:00.444Z,3.80
2019-05-17T21:08:03.537Z,4.13
2019-05-17T21:12:06.551Z,5.27
2019-05-17T21:16:09.564Z,5.40
2019-05-17T21:20:13.182Z,4.60
2019-05-17T21:24:16.204Z,4.47
2019-05-17T21:28:19.237Z,4.23
2019-05-17T21:32:22.244Z,4.97
2019-05-17T21:36:25.264Z,3.97
2019-05-17T21:40:28.283Z,4.07
2019-05-17T21:44:31.537Z,4.03
2019-05-17T21:48:34.761Z,4.80
2019-05-17T21:52:37.774Z,4.43
2019-05-17T21:56:40.777Z,3.93
2019-05-17T22:01:02.245Z,4.97
2019-05-17T22:05:06.321Z,4.17
2019-05-17T22:09:09.427Z,5.50
2019-05-17T22:13:12.434Z,4.93
2019-05-17T22:17:15.439Z,5.27
2019-05-17T22:21:18.468Z,9.83
2019-05-17T22:25:21.494Z,4.07
2019-05-17T22:29:24.503Z,4.73
2019-05-17T22:33:27.715Z,5.30
2019-05-17T22:37:30.788Z,4.80
2019-05-17T22:41:33.808Z,4.90
2019-05-17T22:45:36.825Z,4.53
2019-05-17T22:49:39.837Z,4.87
2019-05-17T22:53:42.862Z,5.73
2019-05-17T22:57:45.871Z,5.80
2019-05-17T23:01:48.890Z,5.70
2019-05-17T23:05:52.302Z,5.80
2019-05-17T23:09:55.303Z,6.70
2019-05-17T23:13:58.385Z,6.83
2019-05-17T23:18:01.388Z,6.50
2019-05-17T23:22:04.394Z,6.27
2019-05-17T23:26:07.394Z,6.83
2019-05-17T23:30:10.614Z,7.40
2019-05-17T23:34:13.677Z,7.83
2019-05-17T23:38:16.689Z,6.93
2019-05-17T23:42:19.707Z,12.43
2019-05-17T23:46:22.708Z,7.40
2019-05-17T23:50:25.729Z,8.10
2019-05-17T23:54:28.769Z,11.63
2019-05-17T23:58:31.775Z,9.00
